Aeroporto :
LOGIN :

Iscrizione | Disclaimer

   EN    FR    IT 

 










Sommario :    VFR   VFR Marginale   IFR   IFR Intensivo   IFR Molto Intensivo
Visibilità : 
Base nubi : 
>= 8 km
>= 3000ft
5 / 8 km
1000 / 3000 ft
1500m / 5 km
500 / 1000 ft
800 / 1500m
200 / 500 ft
< 800m
< 200 ft
Simboli :   Temporali  Nebbia  Neve Forte  Precipitazioni Forti  Vento > 20 kt
SIGMETs :   Varie  Temporali  Ghiacco  Turbolenza  Onda orograficha  Ceneri Vulcaniche






- Altitudine del aeroporto : 386 ft
- Codice IATA : QOE


ETNN - Nörvenich Airforce Base

ULTIMO METAR :
  • 210120Z 15003KT 8000 MIFG FEW001 M03/M04 Q1044 BLU+

METARs OBSOLETI :
  • 210054Z 15002KT 5000 MIFG BR FEW001 M04/M04 Q1044 WHT
  • 210020Z 12001KT 2000 MIFG BR FEW001 M03/M04 Q1044 YLO
  • 202357Z 13001KT 0600 FZFG FEW001 M04/M04 Q1045 RED
  • 202346Z 14001KT 4500 MIFG BR FEW001 M03/M03 Q1045 GRN
  • 202337Z VRB03KT 3000 MIFG BR FEW001 M03/M03 Q1045 YLO
  • 202320Z 15003KT 1200 MIFG BR SCT001 M03/M03 Q1045 AMB
  • 202300Z 13002KT 0500 FZFG SCT001 M02/M03 Q1045 RED

TAF AMD TAF ETNN
Valido dal 20 a 20 ore il 21 a 03 ore UTC


202013Z 2020/2103 VRB01KT 0300 FZFG VV000 CANCEL BY ETGL



MetMap, La meteo Aeronautica in un colpo d'occhio ! - Copyright ORBIFLY Dicembre 2007 - Disclaimer

ORBIFLY MET'MAP TEAM :

Programmazione e sviluppo : Alexandra Zaïnal
Concezione : Baudouin d'Aumeries
Aiuto per la programmazione : Marc-Olivier Méhu
Supporto tecnico e logistico : Manuel Goepfert
Aiuto per la traduzione : Arnaldo La Scala

Contatto : metmap@orbifly.com




FONTI E CREDITI :

   NOAA